Terminal Aerodrome Forecast
Issued by NWS

Home | Current Version | Previous Version | Text Only | Print | Product List | Glossary On
Versions: 1 2 3 4 5 6 7 8 9 10 11 12 13 14 15
000
FTUS45 KRIW 221700
TAFBPI
TAF
KBPI 221725Z 2218/2318 18012G18KT P6SM SCT070 BKN100
     FM222000 22024G34KT P6SM VCSH BKN070
     FM230300 28015G25KT P6SM VCSH BKN060
     FM230800 28014KT P6SM SCT100
     FM231600 30022G32KT P6SM VCSH BKN060=

USA.gov is the U.S. government's official web portal to all federal, state and local government web resources and services.